createdAt,value
2018-07-12T00:00:02.035Z,195.70
2018-07-12T00:01:01.999Z,164.10
2018-07-12T00:02:02.122Z,99.80
2018-07-12T00:03:01.927Z,97.00
2018-07-12T00:04:01.924Z,97.10
2018-07-12T00:05:01.916Z,48.10
2018-07-12T00:06:01.838Z,61.40
2018-07-12T00:07:01.801Z,62.70
2018-07-12T00:08:01.776Z,47.10
2018-07-12T00:09:01.816Z,54.70
2018-07-12T00:10:01.720Z,45.10
2018-07-12T00:11:01.730Z,49.70
2018-07-12T00:12:01.708Z,37.50
2018-07-12T00:14:01.602Z,30.00
2018-07-12T00:15:01.578Z,36.90
2018-07-12T00:16:01.558Z,33.60
2018-07-12T00:17:01.514Z,37.90
2018-07-12T00:18:01.491Z,33.90
2018-07-12T00:19:01.510Z,114.60
2018-07-12T00:20:01.427Z,63.00
2018-07-12T00:21:01.391Z,57.00
2018-07-12T00:22:01.393Z,47.00
2018-07-12T00:23:01.331Z,44.10
2018-07-12T00:24:01.568Z,42.70
2018-07-12T00:25:01.286Z,62.10
2018-07-12T00:26:01.266Z,51.70
2018-07-12T00:27:01.226Z,115.00
2018-07-12T00:28:01.177Z,136.20
2018-07-12T00:29:01.769Z,60.20
2018-07-12T00:30:01.126Z,56.40
2018-07-12T00:31:01.095Z,40.60
2018-07-12T00:32:01.127Z,84.70
2018-07-12T00:33:01.037Z,67.70
2018-07-12T00:34:01.028Z,49.00
2018-07-12T00:35:00.970Z,40.70
2018-07-12T00:36:00.957Z,44.50
2018-07-12T00:37:00.919Z,36.90
2018-07-12T00:38:00.897Z,38.60
2018-07-12T00:39:00.862Z,34.00
2018-07-12T00:40:00.846Z,28.10
2018-07-12T00:41:00.793Z,34.00
2018-07-12T00:42:00.763Z,40.10
2018-07-12T00:43:00.743Z,137.00
2018-07-12T00:44:00.742Z,105.00
2018-07-12T00:45:00.824Z,83.20
2018-07-12T00:46:00.643Z,61.80
2018-07-12T00:47:00.635Z,56.80
2018-07-12T00:48:00.588Z,50.70
2018-07-12T00:49:00.559Z,39.60
2018-07-12T00:50:00.530Z,35.50
2018-07-12T00:51:00.712Z,27.50
2018-07-12T00:52:00.476Z,31.50
2018-07-12T00:53:00.435Z,30.20
2018-07-12T00:54:00.617Z,26.90
2018-07-12T00:55:00.376Z,31.80
2018-07-12T00:56:00.353Z,20.70
2018-07-12T00:57:00.591Z,29.40
2018-07-12T00:58:00.306Z,23.70
2018-07-12T00:59:00.255Z,25.60
2018-07-12T01:00:00.233Z,23.30
2018-07-12T01:01:00.222Z,20.90
2018-07-12T01:02:00.171Z,25.20
2018-07-12T01:03:00.180Z,26.00
2018-07-12T01:04:00.123Z,26.50
2018-07-12T01:05:00.086Z,36.20
2018-07-12T01:06:00.049Z,27.40
2018-07-12T01:07:00.022Z,41.00
2018-07-12T01:07:59.988Z,28.50
2018-07-12T01:08:59.969Z,35.00
2018-07-12T01:09:59.930Z,44.50
2018-07-12T01:10:59.898Z,42.40
2018-07-12T01:11:59.873Z,32.60
2018-07-12T01:12:59.841Z,27.80
2018-07-12T01:13:59.804Z,31.30
2018-07-12T01:14:59.776Z,26.70
2018-07-12T01:15:59.754Z,32.60
2018-07-12T01:16:59.729Z,30.60
2018-07-12T01:17:59.785Z,23.20
2018-07-12T01:18:59.671Z,56.50
2018-07-12T01:19:59.631Z,29.70
2018-07-12T01:20:59.615Z,23.40
2018-07-12T01:21:59.573Z,27.60
2018-07-12T01:22:59.536Z,31.00
2018-07-12T01:24:00.022Z,33.90
2018-07-12T01:24:59.546Z,21.30
2018-07-12T01:25:59.454Z,22.10
2018-07-12T01:26:59.427Z,20.50
2018-07-12T01:27:59.384Z,23.30
2018-07-12T01:28:59.377Z,21.40
2018-07-12T01:29:59.681Z,22.30
2018-07-12T01:30:59.317Z,25.80
2018-07-12T01:31:59.361Z,21.80
2018-07-12T01:32:59.248Z,57.70
2018-07-12T01:33:59.423Z,43.90
2018-07-12T01:34:59.188Z,34.00
2018-07-12T01:35:59.174Z,23.80
2018-07-12T01:36:59.157Z,23.20
2018-07-12T01:37:59.086Z,31.10
2018-07-12T01:38:59.062Z,37.40
2018-07-12T01:39:59.026Z,27.30
2018-07-12T01:41:58.975Z,18.70
2018-07-12T01:42:58.968Z,24.30
2018-07-12T01:43:58.903Z,28.40
2018-07-12T01:44:58.886Z,23.10
2018-07-12T01:45:58.844Z,27.40
2018-07-12T01:46:58.817Z,28.10
2018-07-12T01:47:58.788Z,25.10
2018-07-12T01:48:58.759Z,22.60
2018-07-12T01:49:58.731Z,37.60
2018-07-12T01:50:58.901Z,37.50
2018-07-12T01:51:58.673Z,36.90
2018-07-12T01:52:58.635Z,29.40
2018-07-12T01:53:58.631Z,30.50
2018-07-12T01:54:58.582Z,20.60
2018-07-12T01:55:58.540Z,32.80
2018-07-12T01:56:58.710Z,22.30
2018-07-12T01:57:58.490Z,23.00
2018-07-12T01:58:58.448Z,30.60
2018-07-12T01:59:58.427Z,34.60
2018-07-12T02:00:58.387Z,45.30
2018-07-12T02:01:58.356Z,29.40
2018-07-12T02:02:58.349Z,28.00
2018-07-12T02:03:58.302Z,25.00
2018-07-12T02:04:58.277Z,17.70
2018-07-12T02:05:58.258Z,25.10
2018-07-12T02:06:58.208Z,31.30
2018-07-12T02:07:58.308Z,20.20
2018-07-12T02:08:58.171Z,31.50
2018-07-12T02:09:58.157Z,25.90
2018-07-12T02:10:58.088Z,35.70
2018-07-12T02:11:58.064Z,28.60
2018-07-12T02:12:58.046Z,37.80
2018-07-12T02:13:58.000Z,34.00
2018-07-12T02:14:57.974Z,27.10
2018-07-12T02:15:57.945Z,33.90
2018-07-12T02:16:57.967Z,30.00
2018-07-12T02:17:57.901Z,33.60
2018-07-12T02:18:57.869Z,24.10
2018-07-12T02:19:57.837Z,25.50
2018-07-12T02:20:57.822Z,22.40
2018-07-12T02:21:57.778Z,28.40
2018-07-12T02:22:57.887Z,28.30
2018-07-12T02:23:57.716Z,20.20
2018-07-12T02:24:57.675Z,33.70
2018-07-12T02:25:57.639Z,26.30
2018-07-12T02:26:57.616Z,21.10
2018-07-12T02:27:57.585Z,25.30
2018-07-12T02:28:57.700Z,18.40
2018-07-12T02:29:57.520Z,22.20
2018-07-12T02:30:57.508Z,22.50
2018-07-12T02:31:57.476Z,23.40
2018-07-12T02:32:57.430Z,25.10
2018-07-12T02:33:57.422Z,26.80
2018-07-12T02:34:57.414Z,22.00
2018-07-12T02:35:57.341Z,29.00
2018-07-12T02:36:57.307Z,22.20
2018-07-12T02:37:57.347Z,22.60
2018-07-12T02:38:57.248Z,33.30
2018-07-12T02:39:57.223Z,23.60
2018-07-12T02:40:57.181Z,28.70
2018-07-12T02:41:57.168Z,32.30
2018-07-12T02:42:57.129Z,25.70
2018-07-12T02:43:57.107Z,22.30
2018-07-12T02:44:57.070Z,27.70
2018-07-12T02:45:57.027Z,25.40
2018-07-12T02:46:56.990Z,31.50
2018-07-12T02:47:56.965Z,28.60
2018-07-12T02:48:56.934Z,23.80
2018-07-12T02:49:56.893Z,18.50
2018-07-12T02:50:56.866Z,35.20
2018-07-12T02:51:56.839Z,24.00
2018-07-12T02:52:56.809Z,28.30
2018-07-12T02:53:56.778Z,22.90
2018-07-12T02:54:56.953Z,37.50
2018-07-12T02:55:56.711Z,28.30
2018-07-12T02:56:56.685Z,22.60
2018-07-12T02:57:56.673Z,23.20
2018-07-12T02:58:56.659Z,22.30
2018-07-12T02:59:56.617Z,19.40
2018-07-12T03:00:56.706Z,17.70
2018-07-12T03:01:56.526Z,24.60
2018-07-12T03:02:56.496Z,24.40
2018-07-12T03:03:56.467Z,21.40
2018-07-12T03:04:56.440Z,27.50
2018-07-12T03:05:56.402Z,23.30
2018-07-12T03:06:56.375Z,24.50
2018-07-12T03:07:56.346Z,25.90
2018-07-12T03:08:56.318Z,20.50
2018-07-12T03:09:56.279Z,21.70
2018-07-12T03:10:56.260Z,32.10
2018-07-12T03:11:56.225Z,23.80
2018-07-12T03:12:56.188Z,20.60
2018-07-12T03:13:56.171Z,24.30
2018-07-12T03:14:56.134Z,22.30
2018-07-12T03:15:56.108Z,21.10
2018-07-12T03:16:56.065Z,24.00
2018-07-12T03:17:56.038Z,22.10
2018-07-12T03:18:56.030Z,20.60
2018-07-12T03:19:55.981Z,15.10
2018-07-12T03:21:55.918Z,17.40
2018-07-12T03:22:55.890Z,28.40
2018-07-12T03:23:55.847Z,19.20
2018-07-12T03:24:55.825Z,29.00
2018-07-12T03:25:55.790Z,21.20
2018-07-12T03:26:55.929Z,30.90
2018-07-12T03:27:55.730Z,21.40
2018-07-12T03:28:55.711Z,18.70
2018-07-12T03:29:55.662Z,20.30
2018-07-12T03:30:55.638Z,22.40
2018-07-12T03:31:55.608Z,16.40
2018-07-12T03:32:55.733Z,17.40
2018-07-12T03:33:55.544Z,26.50
2018-07-12T03:34:55.507Z,25.70
2018-07-12T03:35:55.487Z,15.20
2018-07-12T03:36:55.464Z,21.50
2018-07-12T03:37:55.415Z,24.00
2018-07-12T03:38:55.380Z,20.90
2018-07-12T03:39:55.369Z,21.30
2018-07-12T03:40:55.326Z,37.10
2018-07-12T03:41:55.305Z,25.10
2018-07-12T03:42:55.264Z,20.40
2018-07-12T03:43:55.228Z,21.20
2018-07-12T03:44:55.199Z,24.70
2018-07-12T03:45:55.166Z,19.90
2018-07-12T03:46:55.152Z,22.30
2018-07-12T03:47:55.102Z,18.60
2018-07-12T03:48:55.082Z,18.50
2018-07-12T03:49:55.046Z,19.70
2018-07-12T03:50:55.015Z,27.40
2018-07-12T03:51:54.983Z,22.70
2018-07-12T03:52:54.946Z,18.40
2018-07-12T03:53:54.934Z,19.90
2018-07-12T03:54:54.888Z,29.20
2018-07-12T03:55:54.858Z,20.30
2018-07-12T03:56:54.826Z,27.20
2018-07-12T03:57:54.796Z,23.40
2018-07-12T03:58:54.922Z,21.40
2018-07-12T03:59:54.734Z,22.70
2018-07-12T04:00:54.705Z,16.90
2018-07-12T04:01:54.670Z,21.70
2018-07-12T04:02:54.646Z,21.10
2018-07-12T04:03:54.615Z,19.80
2018-07-12T04:04:54.927Z,23.30
2018-07-12T04:05:54.560Z,23.00
2018-07-12T04:06:54.524Z,19.20
2018-07-12T04:07:54.485Z,18.40
2018-07-12T04:08:54.451Z,22.80
2018-07-12T04:09:54.417Z,23.80
2018-07-12T04:10:54.608Z,21.80
2018-07-12T04:11:54.357Z,20.20
2018-07-12T04:12:54.331Z,16.50
2018-07-12T04:13:54.293Z,21.80
2018-07-12T04:14:54.259Z,18.70
2018-07-12T04:15:54.231Z,32.00
2018-07-12T04:16:54.214Z,31.90
2018-07-12T04:17:54.168Z,30.90
2018-07-12T04:18:54.694Z,19.80
2018-07-12T04:19:54.116Z,23.90
2018-07-12T04:20:54.074Z,18.20
2018-07-12T04:21:54.047Z,22.90
2018-07-12T04:22:54.014Z,22.70
2018-07-12T04:23:53.980Z,23.00
2018-07-12T04:24:53.950Z,20.30
2018-07-12T04:25:53.926Z,16.50
2018-07-12T04:26:53.890Z,27.30
2018-07-12T04:27:53.857Z,27.20
2018-07-12T04:28:53.824Z,22.50
2018-07-12T04:29:53.793Z,25.30
2018-07-12T04:30:53.761Z,23.80
2018-07-12T04:31:54.089Z,18.50
2018-07-12T04:32:53.704Z,22.80
2018-07-12T04:33:53.670Z,20.10
2018-07-12T04:34:53.639Z,17.20
2018-07-12T04:35:53.602Z,17.50
2018-07-12T04:36:53.572Z,25.60
2018-07-12T04:37:53.709Z,20.00
2018-07-12T04:38:53.512Z,21.30
2018-07-12T04:39:53.476Z,16.80
2018-07-12T04:40:53.456Z,22.40
2018-07-12T04:41:53.422Z,37.60
2018-07-12T04:42:53.380Z,44.00
2018-07-12T04:43:53.347Z,25.90
2018-07-12T04:44:53.321Z,23.40
2018-07-12T04:45:53.299Z,31.40
2018-07-12T04:46:53.254Z,23.90
2018-07-12T04:47:53.223Z,21.00
2018-07-12T04:48:53.201Z,26.00
2018-07-12T04:49:53.180Z,18.70
2018-07-12T04:50:53.133Z,21.70
2018-07-12T04:51:53.102Z,14.30
2018-07-12T04:52:53.071Z,21.80
2018-07-12T04:53:53.067Z,25.50
2018-07-12T04:54:53.004Z,22.90
2018-07-12T04:55:52.977Z,13.10
2018-07-12T04:56:52.943Z,16.30
2018-07-12T04:57:52.908Z,14.50
2018-07-12T04:58:52.884Z,28.00
2018-07-12T04:59:52.847Z,19.00
2018-07-12T05:00:52.820Z,16.30
2018-07-12T05:01:52.782Z,15.30
2018-07-12T05:02:52.754Z,18.40
2018-07-12T05:03:52.974Z,15.50
2018-07-12T05:04:52.689Z,14.10
2018-07-12T05:05:52.660Z,16.40
2018-07-12T05:06:52.631Z,20.50
2018-07-12T05:07:52.605Z,15.00
2018-07-12T05:08:52.562Z,22.60
2018-07-12T05:09:52.883Z,15.30
2018-07-12T05:10:52.501Z,25.30
2018-07-12T05:11:52.469Z,21.60
2018-07-12T05:12:52.439Z,18.00
2018-07-12T05:13:52.405Z,22.50
2018-07-12T05:14:52.379Z,16.60
2018-07-12T05:15:52.442Z,21.10
2018-07-12T05:16:52.312Z,15.50
2018-07-12T05:17:52.277Z,21.50
2018-07-12T05:18:52.257Z,21.50
2018-07-12T05:19:52.219Z,57.10
2018-07-12T05:20:52.188Z,37.40
2018-07-12T05:21:52.220Z,32.40
2018-07-12T05:22:52.125Z,29.50
2018-07-12T05:23:52.092Z,32.30
2018-07-12T05:24:52.062Z,32.10
2018-07-12T05:25:52.031Z,28.50
2018-07-12T05:26:51.994Z,25.70
2018-07-12T05:27:51.959Z,23.70
2018-07-12T05:28:51.933Z,19.90
2018-07-12T05:29:51.905Z,20.80
2018-07-12T05:30:51.903Z,21.80
2018-07-12T05:31:51.834Z,19.50
2018-07-12T05:32:51.825Z,17.40
2018-07-12T05:33:51.770Z,20.80
2018-07-12T05:34:51.781Z,21.70
2018-07-12T05:35:51.742Z,23.80
2018-07-12T05:36:51.676Z,24.60
2018-07-12T05:37:51.645Z,18.40
2018-07-12T05:38:51.637Z,22.70
2018-07-12T05:39:51.587Z,17.30
2018-07-12T05:40:51.552Z,17.20
2018-07-12T05:41:51.514Z,22.70
2018-07-12T05:42:51.500Z,29.80
2018-07-12T05:43:51.452Z,14.80
2018-07-12T05:44:51.427Z,21.50
2018-07-12T05:45:51.390Z,19.60
2018-07-12T05:46:51.361Z,20.30
2018-07-12T05:47:51.325Z,16.50
2018-07-12T05:48:51.296Z,25.60
2018-07-12T05:49:51.261Z,21.30
2018-07-12T05:50:51.235Z,22.80
2018-07-12T05:51:51.204Z,20.30
2018-07-12T05:52:51.180Z,14.50
2018-07-12T05:53:51.140Z,18.60
2018-07-12T05:54:51.101Z,18.90
2018-07-12T05:55:51.111Z,17.60
2018-07-12T05:56:51.044Z,20.90
2018-07-12T05:57:51.007Z,21.30
2018-07-12T05:58:50.991Z,21.80
2018-07-12T05:59:50.945Z,14.20
2018-07-12T06:00:50.940Z,22.20
2018-07-12T06:01:50.888Z,18.30
2018-07-12T06:02:50.914Z,22.50
2018-07-12T06:03:50.828Z,19.80
2018-07-12T06:04:50.794Z,24.60
2018-07-12T06:05:50.772Z,14.30
2018-07-12T06:06:50.833Z,19.60
2018-07-12T06:07:50.692Z,23.20
2018-07-12T06:08:50.665Z,16.50
2018-07-12T06:09:50.662Z,19.70
2018-07-12T06:10:50.610Z,19.30
2018-07-12T06:11:50.582Z,26.60
2018-07-12T06:12:50.533Z,21.80
2018-07-12T06:13:50.498Z,25.00
2018-07-12T06:14:50.475Z,18.50
2018-07-12T06:15:50.435Z,18.00
2018-07-12T06:16:50.409Z,23.60
2018-07-12T06:17:50.533Z,17.10
2018-07-12T06:18:50.358Z,22.80
2018-07-12T06:19:50.308Z,28.20
2018-07-12T06:20:50.276Z,26.90
2018-07-12T06:21:50.254Z,27.80
2018-07-12T06:22:50.216Z,21.20
2018-07-12T06:23:50.188Z,22.60
2018-07-12T06:24:50.150Z,23.10
2018-07-12T06:25:50.124Z,16.40
2018-07-12T06:26:50.093Z,19.60
2018-07-12T06:27:50.057Z,24.50
2018-07-12T06:28:50.024Z,17.80
2018-07-12T06:29:49.995Z,23.20
2018-07-12T06:30:49.970Z,20.70
2018-07-12T06:31:49.926Z,20.20
2018-07-12T06:32:49.902Z,16.90
2018-07-12T06:33:49.867Z,22.00
2018-07-12T06:34:49.837Z,16.70
2018-07-12T06:35:49.807Z,15.20
2018-07-12T06:36:49.770Z,20.70
2018-07-12T06:37:49.751Z,17.50
2018-07-12T06:38:49.713Z,20.70
2018-07-12T06:39:49.680Z,23.20
2018-07-12T06:40:49.653Z,19.60
2018-07-12T06:41:49.609Z,20.20
2018-07-12T06:42:49.578Z,16.70
2018-07-12T06:43:49.545Z,15.60
2018-07-12T06:44:49.513Z,15.10
2018-07-12T06:45:49.480Z,17.60
2018-07-12T06:46:49.450Z,18.80
2018-07-12T06:47:49.417Z,14.60
2018-07-12T06:48:49.384Z,15.40
2018-07-12T06:49:49.353Z,21.50
2018-07-12T06:50:49.332Z,18.90
2018-07-12T06:51:49.289Z,22.40
2018-07-12T06:52:49.297Z,16.80
2018-07-12T06:53:49.229Z,16.70
2018-07-12T06:54:49.256Z,29.40
2018-07-12T06:55:49.172Z,23.60
2018-07-12T06:56:49.128Z,14.50
2018-07-12T06:57:49.100Z,24.80
2018-07-12T06:58:49.071Z,17.40
2018-07-12T06:59:49.034Z,20.90
2018-07-12T07:00:49.002Z,22.20
2018-07-12T07:01:48.970Z,17.40
2018-07-12T07:02:48.940Z,18.90
2018-07-12T07:03:48.910Z,18.10
2018-07-12T07:04:48.881Z,17.10
2018-07-12T07:05:48.853Z,18.80
2018-07-12T07:06:48.813Z,17.80
2018-07-12T07:07:48.785Z,17.30
2018-07-12T07:08:48.752Z,14.80
2018-07-12T07:09:48.716Z,29.40
2018-07-12T07:10:48.691Z,28.00
2018-07-12T07:11:48.649Z,18.80
2018-07-12T07:12:48.619Z,20.10
2018-07-12T07:13:48.594Z,21.60
2018-07-12T07:14:48.848Z,19.30
2018-07-12T07:15:48.523Z,16.40
2018-07-12T07:16:48.492Z,20.40
2018-07-12T07:17:48.465Z,26.60
2018-07-12T07:18:48.430Z,15.60
2018-07-12T07:19:48.401Z,17.50
2018-07-12T07:20:48.382Z,21.10
2018-07-12T07:21:48.363Z,21.30
2018-07-12T07:22:48.298Z,15.50
2018-07-12T07:23:48.270Z,15.60
2018-07-12T07:24:48.235Z,23.00
2018-07-12T07:25:48.204Z,14.90
2018-07-12T07:26:48.171Z,17.40
2018-07-12T07:27:48.140Z,18.00
2018-07-12T07:28:48.106Z,22.00
2018-07-12T07:29:48.132Z,23.80
2018-07-12T07:30:48.045Z,21.70
2018-07-12T07:31:48.009Z,16.60
2018-07-12T07:32:47.978Z,17.30
2018-07-12T07:33:47.975Z,14.90
2018-07-12T07:34:47.915Z,19.70
2018-07-12T07:35:48.232Z,14.20
2018-07-12T07:36:47.895Z,18.50
2018-07-12T07:37:47.819Z,22.10
2018-07-12T07:38:47.783Z,24.00
2018-07-12T07:39:47.761Z,22.80
2018-07-12T07:40:47.729Z,18.40
2018-07-12T07:41:47.891Z,22.20
2018-07-12T07:42:47.656Z,16.70
2018-07-12T07:43:47.632Z,17.30
2018-07-12T07:44:47.594Z,18.40
2018-07-12T07:45:47.563Z,21.10
2018-07-12T07:46:47.534Z,23.10
2018-07-12T07:47:47.516Z,12.30
2018-07-12T07:48:47.469Z,21.20
2018-07-12T07:49:47.435Z,16.40
2018-07-12T07:50:47.404Z,19.20
2018-07-12T07:51:47.369Z,16.60
2018-07-12T07:52:47.340Z,17.70
2018-07-12T07:53:47.300Z,17.90
2018-07-12T07:54:47.274Z,19.80
2018-07-12T07:55:47.240Z,13.40
2018-07-12T07:56:47.214Z,18.40
2018-07-12T07:57:47.177Z,15.30
2018-07-12T07:58:47.142Z,19.30
2018-07-12T07:59:47.106Z,17.00
2018-07-12T08:00:47.096Z,17.30
2018-07-12T08:01:47.046Z,13.80
2018-07-12T08:02:47.015Z,14.60
2018-07-12T08:03:46.977Z,20.10
2018-07-12T08:04:46.950Z,22.80
2018-07-12T08:05:46.915Z,16.40
2018-07-12T08:06:46.890Z,21.50
2018-07-12T08:07:47.107Z,13.50
2018-07-12T08:08:46.823Z,15.20
2018-07-12T08:09:46.787Z,18.50
2018-07-12T08:10:46.754Z,23.40
2018-07-12T08:11:46.736Z,18.80
2018-07-12T08:12:46.691Z,16.80
2018-07-12T08:13:46.870Z,17.60
2018-07-12T08:14:46.637Z,11.90
2018-07-12T08:15:46.596Z,12.60
2018-07-12T08:16:46.571Z,12.20
2018-07-12T08:17:46.538Z,13.60
2018-07-12T08:18:46.549Z,20.70
2018-07-12T08:19:46.465Z,20.80
2018-07-12T08:20:46.431Z,12.30
2018-07-12T08:21:46.398Z,14.60
2018-07-12T08:22:46.362Z,16.30
2018-07-12T08:23:46.350Z,11.30
2018-07-12T08:24:46.305Z,14.60
2018-07-12T08:25:46.274Z,19.40
2018-07-12T08:26:46.236Z,11.60
2018-07-12T08:27:46.207Z,17.40
2018-07-12T08:28:46.191Z,11.50
2018-07-12T08:29:46.142Z,14.00
2018-07-12T08:30:46.106Z,11.40
2018-07-12T08:31:46.075Z,11.40
2018-07-12T08:32:46.043Z,17.00
2018-07-12T08:33:46.009Z,15.20
2018-07-12T08:34:45.974Z,14.80
2018-07-12T08:35:45.942Z,11.60
2018-07-12T08:36:45.910Z,14.90
2018-07-12T08:37:45.878Z,14.80
2018-07-12T08:38:45.856Z,20.20
2018-07-12T08:39:45.980Z,18.30
2018-07-12T08:40:45.789Z,17.20
2018-07-12T08:41:45.754Z,16.30
2018-07-12T08:42:45.743Z,64.80
2018-07-12T08:43:45.688Z,31.90
2018-07-12T08:44:45.688Z,22.20
2018-07-12T08:46:45.588Z,21.70
2018-07-12T08:47:45.557Z,20.10
2018-07-12T08:48:45.520Z,20.60
2018-07-12T08:49:45.494Z,18.80
2018-07-12T08:50:45.457Z,14.90
2018-07-12T08:51:45.420Z,15.10
2018-07-12T08:52:45.394Z,14.70
2018-07-12T08:53:45.362Z,17.60
2018-07-12T08:54:45.365Z,19.80
2018-07-12T08:55:45.289Z,15.80
2018-07-12T08:56:45.260Z,17.10
2018-07-12T08:57:45.242Z,21.50
2018-07-12T08:58:45.195Z,20.00
2018-07-12T08:59:45.162Z,12.80
2018-07-12T09:00:45.143Z,15.20
2018-07-12T09:01:45.095Z,18.20
2018-07-12T09:02:45.139Z,16.10
2018-07-12T09:03:45.034Z,17.10
2018-07-12T09:04:45.003Z,15.00
2018-07-12T09:05:44.963Z,18.00
2018-07-12T09:06:44.938Z,17.40
2018-07-12T09:07:44.904Z,17.20
2018-07-12T09:08:44.870Z,13.50
2018-07-12T09:09:44.837Z,15.80
2018-07-12T09:10:44.804Z,15.60
2018-07-12T09:11:44.766Z,20.10
2018-07-12T09:12:44.735Z,17.50
2018-07-12T09:13:44.703Z,15.10
2018-07-12T09:14:44.673Z,16.40
2018-07-12T09:15:44.651Z,16.60
2018-07-12T09:16:44.630Z,17.50
2018-07-12T09:17:44.574Z,12.20
2018-07-12T09:18:44.565Z,22.80
2018-07-12T09:19:44.506Z,22.30
2018-07-12T09:20:44.474Z,18.80
2018-07-12T09:21:44.707Z,13.50
2018-07-12T09:22:44.412Z,12.40
2018-07-12T09:23:44.377Z,14.60
2018-07-12T09:24:44.351Z,13.00
2018-07-12T09:25:44.314Z,19.00
2018-07-12T09:26:44.280Z,11.00
2018-07-12T09:27:44.247Z,15.00
2018-07-12T09:28:44.211Z,20.30
2018-07-12T09:29:44.191Z,13.10
2018-07-12T09:30:44.155Z,17.10
2018-07-12T09:31:44.116Z,16.00
2018-07-12T09:32:44.079Z,14.20
2018-07-12T09:33:44.048Z,23.10
2018-07-12T09:34:44.066Z,17.00
2018-07-12T09:35:43.982Z,18.10
2018-07-12T09:36:43.967Z,17.90
2018-07-12T09:37:44.017Z,16.70
2018-07-12T09:38:43.896Z,21.10
2018-07-12T09:39:43.899Z,16.80
2018-07-12T09:40:43.819Z,14.30
2018-07-12T09:41:43.812Z,21.30
2018-07-12T09:42:43.750Z,14.50
2018-07-12T09:43:43.973Z,19.50
2018-07-12T09:44:43.693Z,16.60
2018-07-12T09:45:43.657Z,16.70
2018-07-12T09:46:43.622Z,19.00
2018-07-12T09:47:43.602Z,20.20
2018-07-12T09:48:43.553Z,19.20
2018-07-12T09:49:43.771Z,15.40
2018-07-12T09:50:43.497Z,19.50
2018-07-12T09:51:43.463Z,20.00
2018-07-12T09:52:43.432Z,15.00
2018-07-12T09:53:43.395Z,13.30
2018-07-12T09:54:43.355Z,15.00
2018-07-12T09:55:43.433Z,22.30
2018-07-12T09:56:43.475Z,22.80
2018-07-12T09:57:43.258Z,10.30
2018-07-12T09:58:43.225Z,19.90
2018-07-12T09:59:43.197Z,15.90
2018-07-12T10:00:43.161Z,16.40
2018-07-12T10:01:43.132Z,17.60
2018-07-12T10:02:43.093Z,16.50
2018-07-12T10:03:43.069Z,17.00
2018-07-12T10:04:43.038Z,14.10
2018-07-12T10:05:42.997Z,12.40
2018-07-12T10:06:42.969Z,16.50
2018-07-12T10:07:42.933Z,16.80
2018-07-12T10:08:42.897Z,15.90
2018-07-12T10:09:42.876Z,18.70
2018-07-12T10:10:43.037Z,17.60
2018-07-12T10:11:42.805Z,17.70
2018-07-12T10:12:42.766Z,19.20
2018-07-12T10:13:42.770Z,23.60
2018-07-12T10:14:42.706Z,20.90
2018-07-12T10:15:42.674Z,24.30
2018-07-12T10:16:42.637Z,23.70
2018-07-12T10:17:42.606Z,21.40
2018-07-12T10:18:42.569Z,34.70
2018-07-12T10:19:42.538Z,21.60
2018-07-12T10:20:42.503Z,23.00
2018-07-12T10:21:42.472Z,13.40
2018-07-12T10:22:42.439Z,22.20
2018-07-12T10:23:42.413Z,18.10
2018-07-12T10:24:42.381Z,23.50
2018-07-12T10:25:42.343Z,24.20
2018-07-12T10:26:42.317Z,19.20
2018-07-12T10:27:42.293Z,48.40
2018-07-12T10:28:42.246Z,24.80
2018-07-12T10:29:42.232Z,25.90
2018-07-12T10:30:42.182Z,25.70
2018-07-12T10:31:42.151Z,17.60
2018-07-12T10:32:42.121Z,18.20
2018-07-12T10:33:42.088Z,22.50
2018-07-12T10:34:42.053Z,21.00
2018-07-12T10:35:42.018Z,19.80
2018-07-12T10:36:41.982Z,25.10
2018-07-12T10:37:42.052Z,12.70
2018-07-12T10:38:41.924Z,27.80
2018-07-12T10:39:41.888Z,23.20
2018-07-12T10:40:41.857Z,30.10
2018-07-12T10:41:41.851Z,47.50
2018-07-12T10:42:41.791Z,30.50
2018-07-12T10:43:41.908Z,23.40
2018-07-12T10:44:41.728Z,27.70
2018-07-12T10:45:41.694Z,26.50
2018-07-12T10:46:41.664Z,32.50
2018-07-12T10:47:41.632Z,26.10
2018-07-12T10:48:41.607Z,13.10
2018-07-12T10:49:41.573Z,23.50
2018-07-12T10:50:41.534Z,24.60
2018-07-12T10:51:41.511Z,16.80
2018-07-12T10:52:41.471Z,23.70
2018-07-12T10:53:41.451Z,18.80
2018-07-12T10:54:41.708Z,19.40
2018-07-12T10:55:41.385Z,15.70
2018-07-12T10:56:41.352Z,13.70
2018-07-12T10:57:41.325Z,11.20
2018-07-12T10:58:41.286Z,19.40
2018-07-12T10:59:41.255Z,16.60
2018-07-12T11:00:41.232Z,22.00
2018-07-12T11:01:41.197Z,21.70
2018-07-12T11:02:41.173Z,18.50
2018-07-12T11:03:41.139Z,20.10
2018-07-12T11:04:41.461Z,25.10
2018-07-12T11:05:41.184Z,24.10
2018-07-12T11:06:41.048Z,33.10
2018-07-12T11:07:41.023Z,23.10
2018-07-12T11:08:40.991Z,19.40
2018-07-12T11:09:40.978Z,18.60
2018-07-12T11:10:40.942Z,23.10
2018-07-12T11:11:41.113Z,31.10
2018-07-12T11:12:40.884Z,16.50
2018-07-12T11:13:40.858Z,26.50
2018-07-12T11:14:40.821Z,21.60
2018-07-12T11:15:40.803Z,19.90
2018-07-12T11:16:40.773Z,19.20
2018-07-12T11:17:40.754Z,21.40
2018-07-12T11:18:40.710Z,21.60
2018-07-12T11:19:40.677Z,26.30
2018-07-12T11:20:40.668Z,24.30
2018-07-12T11:21:40.627Z,22.60
2018-07-12T11:22:40.600Z,35.10
2018-07-12T11:23:40.567Z,20.00
2018-07-12T11:24:40.541Z,16.80
2018-07-12T11:25:40.521Z,10.90
2018-07-12T11:26:40.499Z,19.40
2018-07-12T11:27:40.492Z,19.10
2018-07-12T11:28:40.539Z,19.20
2018-07-12T11:29:40.408Z,18.40
2018-07-12T11:30:40.380Z,18.80
2018-07-12T11:31:40.353Z,19.00
2018-07-12T11:32:40.335Z,19.70
2018-07-12T11:33:40.296Z,17.90
2018-07-12T11:34:40.275Z,33.70
2018-07-12T11:35:40.245Z,22.70
2018-07-12T11:36:40.222Z,26.00
2018-07-12T11:37:40.192Z,20.60
2018-07-12T11:38:40.184Z,25.60
2018-07-12T11:39:40.141Z,17.90
2018-07-12T11:40:40.118Z,24.80
2018-07-12T11:41:40.093Z,23.00
2018-07-12T11:42:40.073Z,36.30
2018-07-12T11:43:40.089Z,70.50
2018-07-12T11:44:40.048Z,33.90
2018-07-12T11:45:39.992Z,24.50
2018-07-12T11:46:39.977Z,23.80
2018-07-12T11:47:39.933Z,41.50
2018-07-12T11:48:39.912Z,24.00
2018-07-12T11:49:39.889Z,36.70
2018-07-12T11:50:39.860Z,25.60
2018-07-12T11:51:39.835Z,29.60
2018-07-12T11:52:39.894Z,23.80
2018-07-12T11:53:39.783Z,26.40
2018-07-12T11:54:39.767Z,30.40
2018-07-12T11:55:39.741Z,18.90
2018-07-12T11:56:39.716Z,21.90
2018-07-12T11:57:39.686Z,21.10
2018-07-12T11:58:39.668Z,20.80
2018-07-12T11:59:39.662Z,24.80
2018-07-12T12:00:39.902Z,20.50
2018-07-12T12:01:39.665Z,22.80
2018-07-12T12:02:39.575Z,34.30
2018-07-12T12:03:39.553Z,27.20
2018-07-12T12:04:39.518Z,37.60
2018-07-12T12:05:39.498Z,30.70
2018-07-12T12:06:39.490Z,38.80
2018-07-12T12:07:39.452Z,34.00
2018-07-12T12:08:39.428Z,29.00
2018-07-12T12:09:39.410Z,29.70
2018-07-12T12:10:39.432Z,31.10
2018-07-12T12:11:39.377Z,14.70
2018-07-12T12:12:39.336Z,25.50
2018-07-12T12:13:39.317Z,35.10
2018-07-12T12:14:39.286Z,53.50
2018-07-12T12:15:39.267Z,49.90
2018-07-12T12:16:39.258Z,52.00
2018-07-12T12:17:39.228Z,106.70
2018-07-12T12:18:39.200Z,105.30
2018-07-12T12:19:39.180Z,98.30
2018-07-12T12:20:39.165Z,71.80
2018-07-12T12:21:39.133Z,56.40
2018-07-12T12:22:39.121Z,60.00
2018-07-12T12:23:39.085Z,57.10
2018-07-12T12:24:39.075Z,50.00
2018-07-12T12:25:39.040Z,50.40
2018-07-12T12:26:39.166Z,43.40
2018-07-12T12:27:39.000Z,43.90
2018-07-12T12:28:38.994Z,39.80
2018-07-12T12:29:38.960Z,37.50
2018-07-12T12:30:38.949Z,41.00
2018-07-12T12:31:38.909Z,33.00
2018-07-12T12:32:39.030Z,32.80
2018-07-12T12:33:38.878Z,25.00
2018-07-12T12:34:38.883Z,27.20
2018-07-12T12:35:38.814Z,21.80
2018-07-12T12:36:38.786Z,32.60
2018-07-12T12:37:38.767Z,28.00
2018-07-12T12:38:38.760Z,32.30
2018-07-12T12:39:38.744Z,31.60
2018-07-12T12:40:38.695Z,24.60
2018-07-12T12:41:38.679Z,22.30
2018-07-12T12:42:38.647Z,22.20
2018-07-12T12:43:38.821Z,21.40
2018-07-12T12:44:38.601Z,18.40
2018-07-12T12:45:38.593Z,26.20
2018-07-12T12:46:38.549Z,31.30
2018-07-12T12:47:38.526Z,24.80
2018-07-12T12:48:38.507Z,25.40
2018-07-12T12:49:38.476Z,24.10
2018-07-12T12:50:38.453Z,23.10
2018-07-12T12:51:38.436Z,19.70
2018-07-12T12:52:38.399Z,21.80
2018-07-12T12:53:38.370Z,20.90
2018-07-12T12:54:38.549Z,32.30
2018-07-12T12:55:38.324Z,29.40